This is the latest recevied weather packets stored in our database for station/object OE5WWO. If no packets are shown the sender has not sent any weather packets the latest 10 day(s).
| Time | Temp. | Humidity | Pressure | Rain* | Wind** | Luminosity | Snow |
|---|---|---|---|---|---|---|---|
| 1777505740 | 6.67° C | 38% | 1029.5 hPa | 0 mm | - | - | - |
| 1777505140 | 6.67° C | 37% | 1029.4 hPa | 0 mm | - | - | - |
| 1777503037 | 7.22° C | 35% | 1029.2 hPa | 0 mm | - | - | - |
| 1777502769 | 7.22° C | 35% | 1029.2 hPa | 0 mm | - | - | - |
| 1777500340 | 7.78° C | 34% | 1028.7 hPa | 0 mm | - | - | - |
| 1777500051 | 8.33° C | 34% | 1028.6 hPa | 0 mm | - | - | - |
| 1777499152 | 8.33° C | 35% | 1028.4 hPa | 0 mm | - | - | - |
| 1777498249 | 8.89° C | 34% | 1028 hPa | 0 mm | - | - | - |
| 1777497937 | 8.89° C | 34% | 1027.9 hPa | 0 mm | - | - | - |
| 1777497040 | 9.44° C | 35% | 1027.8 hPa | 0 mm | - | - | - |
| 1777494338 | 10° C | 35% | 1027 hPa | 0 mm | - | - | - |
| 1777493747 | 10.56° C | 36% | 1026.6 hPa | 0 mm | - | - | - |
| 1777493437 | 10.56° C | 34% | 1026.5 hPa | 0 mm | - | - | - |
| 1777492540 | 11.11° C | 36% | 1026.2 hPa | 0 mm | - | - | - |
| 1777492240 | 11.11° C | 35% | 1026 hPa | 0 mm | - | - | - |
| 1777490437 | 11.67° C | 36% | 1024.9 hPa | 0 mm | - | - | - |
| 1777489837 | 11.67° C | 35% | 1024.7 hPa | 0 mm | - | - | - |
| 1777489255 | 12.22° C | 35% | 1024.4 hPa | 0 mm | - | - | - |
| 1777488040 | 12.78° C | 36% | 1023.9 hPa | 0 mm | - | - | - |
| 1777487741 | 12.78° C | 36% | 1023.8 hPa | 0 mm | - | - | - |
| 1777485661 | 13.89° C | 34% | 1023 hPa | 0 mm | - | - | - |
| 1777483541 | 15° C | 31% | 1022.3 hPa | 0 mm | - | - | - |
| 1777481151 | 16.11° C | 28% | 1022 hPa | 0 mm | - | - | - |
| 1777480246 | 16.11° C | 28% | 1021.8 hPa | 0 mm | - | - | - |
| 1777476939 | 17.22° C | 27% | 1021.7 hPa | 0 mm | - | - | - |
* Rain latest hour (hover to see other rain measurements)
** Current wind speed in m/s (hover to see current wind gust speed)